createdAt,value
2018-05-18T00:00:21.293Z,10.60
2018-05-18T00:02:55.411Z,10.60
2018-05-18T00:05:33.331Z,10.70
2018-05-18T00:08:09.294Z,10.90
2018-05-18T00:10:46.154Z,10.90
2018-05-18T00:13:24.491Z,10.70
2018-05-18T00:15:55.651Z,10.70
2018-05-18T00:18:33.376Z,10.80
2018-05-18T00:21:08.875Z,10.70
2018-05-18T00:23:44.826Z,10.60
2018-05-18T00:26:19.827Z,10.50
2018-05-18T00:28:54.570Z,10.50
2018-05-18T00:31:30.270Z,10.50
2018-05-18T00:34:04.940Z,10.50
2018-05-18T00:36:39.801Z,10.60
2018-05-18T00:39:15.523Z,10.60
2018-05-18T00:41:52.161Z,10.70
2018-05-18T00:44:26.903Z,10.70
2018-05-18T00:47:02.557Z,10.80
2018-05-18T00:49:38.161Z,10.90
2018-05-18T00:52:13.895Z,10.90
2018-05-18T00:54:48.707Z,11.00
2018-05-18T00:57:23.750Z,11.10
2018-05-18T01:00:02.528Z,10.90
2018-05-18T01:02:33.706Z,10.90
2018-05-18T01:05:09.621Z,10.90
2018-05-18T01:07:45.687Z,10.80
2018-05-18T01:10:21.435Z,10.70
2018-05-18T01:12:50.564Z,10.70
2018-05-18T01:15:28.783Z,10.80
2018-05-18T01:18:06.614Z,10.80
2018-05-18T01:20:44.519Z,10.80
2018-05-18T01:23:18.763Z,10.80
2018-05-18T01:25:53.477Z,10.80
2018-05-18T01:28:28.731Z,10.80
2018-05-18T01:31:06.435Z,10.70
2018-05-18T01:33:41.210Z,10.50
2018-05-18T01:36:12.896Z,10.40
2018-05-18T01:38:50.537Z,10.40
2018-05-18T01:41:26.657Z,10.40
2018-05-18T01:44:02.527Z,10.30
2018-05-18T01:46:37.349Z,10.30
2018-05-18T01:49:15.104Z,10.20
2018-05-18T01:51:51.367Z,10.20
2018-05-18T01:54:26.199Z,10.20
2018-05-18T01:57:02.189Z,10.20
2018-05-18T01:59:37.625Z,10.10
2018-05-18T02:02:11.916Z,10.10
2018-05-18T02:04:48.035Z,10.10
2018-05-18T02:07:22.546Z,10.00
2018-05-18T02:10:02.705Z,10.00
2018-05-18T02:12:33.974Z,10.00
2018-05-18T02:15:09.693Z,10.10
2018-05-18T02:17:47.701Z,10.10
2018-05-18T02:20:22.211Z,10.20
2018-05-18T02:22:53.743Z,10.20
2018-05-18T02:25:31.855Z,10.20
2018-05-18T02:28:09.507Z,10.00
2018-05-18T02:30:44.281Z,9.90
2018-05-18T02:33:19.927Z,10.00
2018-05-18T02:35:55.913Z,10.10
2018-05-18T02:38:31.361Z,10.10
2018-05-18T02:41:06.043Z,10.10
2018-05-18T02:43:40.780Z,10.20
2018-05-18T02:46:16.576Z,10.20
2018-05-18T02:48:52.657Z,10.20
2018-05-18T02:51:28.262Z,10.20
2018-05-18T02:53:59.492Z,10.20
2018-05-18T02:56:36.897Z,10.30
2018-05-18T02:59:12.855Z,10.30
2018-05-18T03:01:50.392Z,10.30
2018-05-18T03:04:25.158Z,10.20
2018-05-18T03:06:59.742Z,10.20
2018-05-18T03:09:34.476Z,10.20
2018-05-18T03:12:10.019Z,10.00
2018-05-18T03:14:45.880Z,9.90
2018-05-18T03:17:21.330Z,9.80
2018-05-18T03:19:56.954Z,9.80
2018-05-18T03:22:32.438Z,9.80
2018-05-18T03:25:08.463Z,9.70
2018-05-18T03:27:43.939Z,9.70
2018-05-18T03:30:18.694Z,9.70
2018-05-18T03:32:52.474Z,9.70
2018-05-18T03:35:30.005Z,9.80
2018-05-18T03:38:04.691Z,9.70
2018-05-18T03:40:42.316Z,9.60
2018-05-18T03:43:16.922Z,9.60
2018-05-18T03:45:50.817Z,9.50
2018-05-18T03:48:28.443Z,9.60
2018-05-18T03:51:03.159Z,9.60
2018-05-18T03:53:34.664Z,9.60
2018-05-18T03:56:10.208Z,9.60
2018-05-18T03:58:46.098Z,9.60
2018-05-18T04:01:29.988Z,9.50
2018-05-18T04:04:29.674Z,9.50
2018-05-18T04:07:13.616Z,9.50
2018-05-18T04:09:44.124Z,9.50
2018-05-18T04:12:19.803Z,9.40
2018-05-18T04:14:54.878Z,9.40
2018-05-18T04:17:29.812Z,9.40
2018-05-18T04:20:05.663Z,9.40
2018-05-18T04:22:40.627Z,9.40
2018-05-18T04:25:16.353Z,9.40
2018-05-18T04:27:49.639Z,9.40
2018-05-18T04:30:28.339Z,9.40
2018-05-18T04:33:03.317Z,9.50
2018-05-18T04:35:37.903Z,9.50
2018-05-18T04:38:13.101Z,9.60
2018-05-18T04:40:48.930Z,9.60
2018-05-18T04:43:23.895Z,9.70
2018-05-18T04:45:59.688Z,9.60
2018-05-18T04:48:34.546Z,9.50
2018-05-18T04:51:09.856Z,9.50
2018-05-18T04:53:45.360Z,9.40
2018-05-18T04:56:21.462Z,9.40
2018-05-18T04:58:56.408Z,9.40
2018-05-18T05:01:31.228Z,9.50
2018-05-18T05:04:07.307Z,9.50
2018-05-18T05:06:43.315Z,9.50
2018-05-18T05:09:18.027Z,9.40
2018-05-18T05:11:53.912Z,9.50
2018-05-18T05:14:29.934Z,9.30
2018-05-18T05:17:05.659Z,9.30
2018-05-18T05:19:39.902Z,9.40
2018-05-18T05:22:15.301Z,9.40
2018-05-18T05:27:52.217Z,9.40
2018-05-18T05:30:34.237Z,9.40
2018-05-18T05:33:05.587Z,9.40
2018-05-18T05:35:41.217Z,9.50
2018-05-18T05:38:19.963Z,9.60
2018-05-18T05:40:54.781Z,9.60
2018-05-18T05:43:30.674Z,9.60
2018-05-18T05:46:09.187Z,9.50
2018-05-18T05:48:40.415Z,9.50
2018-05-18T05:51:18.129Z,9.60
2018-05-18T05:53:56.042Z,9.60
2018-05-18T05:56:25.375Z,9.70
2018-05-18T05:59:03.242Z,9.70
2018-05-18T06:01:38.271Z,9.70
2018-05-18T06:07:19.182Z,9.80
2018-05-18T06:10:00.952Z,9.90
2018-05-18T06:12:32.286Z,9.90
2018-05-18T06:15:08.100Z,10.00
2018-05-18T06:17:42.940Z,9.90
2018-05-18T06:20:18.205Z,10.00
2018-05-18T06:23:01.930Z,9.80
2018-05-18T06:25:37.066Z,10.00
2018-05-18T06:28:09.452Z,10.20
2018-05-18T06:30:45.038Z,10.10
2018-05-18T06:33:19.830Z,10.30
2018-05-18T06:35:56.350Z,10.20
2018-05-18T06:38:31.160Z,10.10
2018-05-18T06:41:06.696Z,10.00
2018-05-18T06:43:41.185Z,10.00
2018-05-18T06:46:17.790Z,10.10
2018-05-18T06:48:52.579Z,10.10
2018-05-18T06:51:28.128Z,9.90
2018-05-18T06:54:00.093Z,9.80
2018-05-18T06:56:34.217Z,9.80
2018-05-18T06:59:10.262Z,10.00
2018-05-18T07:04:25.110Z,10.00
2018-05-18T07:07:00.114Z,10.10
2018-05-18T07:09:36.750Z,10.20
2018-05-18T07:12:10.942Z,10.30
2018-05-18T07:14:46.976Z,10.40
2018-05-18T07:17:21.653Z,10.40
2018-05-18T07:19:57.305Z,10.50
2018-05-18T07:22:34.098Z,10.70
2018-05-18T07:25:09.059Z,10.80
2018-05-18T07:27:43.971Z,10.80
2018-05-18T07:30:21.251Z,10.90
2018-05-18T07:32:50.825Z,11.10
2018-05-18T07:35:28.088Z,11.10
2018-05-18T07:38:05.643Z,11.20
2018-05-18T07:40:41.769Z,11.30
2018-05-18T07:43:15.983Z,11.40
2018-05-18T07:45:51.246Z,11.40
2018-05-18T07:48:29.123Z,11.60
2018-05-18T07:51:04.995Z,11.60
2018-05-18T07:53:39.219Z,11.60
2018-05-18T07:56:13.444Z,11.70
2018-05-18T07:58:50.303Z,11.30
2018-05-18T08:01:25.455Z,11.40
2018-05-18T08:04:00.847Z,11.30
2018-05-18T08:06:35.479Z,11.30
2018-05-18T08:09:13.072Z,11.40
2018-05-18T08:11:48.259Z,11.40
2018-05-18T08:14:26.424Z,11.50
2018-05-18T08:17:02.720Z,11.60
2018-05-18T08:19:39.796Z,11.80
2018-05-18T08:22:11.887Z,12.20
2018-05-18T08:27:54.030Z,12.40
2018-05-18T08:33:37.037Z,12.50
2018-05-18T08:36:21.058Z,12.30
2018-05-18T08:41:55.213Z,12.40
2018-05-18T08:44:31.339Z,12.40
2018-05-18T08:47:07.676Z,12.40
2018-05-18T08:49:43.656Z,12.20
2018-05-18T08:55:24.144Z,12.40
2018-05-18T08:57:57.788Z,12.70
2018-05-18T09:00:32.780Z,12.70
2018-05-18T09:03:07.509Z,12.90
2018-05-18T09:05:41.395Z,13.10
2018-05-18T09:08:19.190Z,13.40
2018-05-18T09:10:54.490Z,13.60
2018-05-18T09:13:28.393Z,13.80
2018-05-18T09:16:06.131Z,14.00
2018-05-18T09:18:41.142Z,14.30
2018-05-18T09:21:13.153Z,14.50
2018-05-18T09:23:47.651Z,14.50
2018-05-18T09:26:22.619Z,14.60
2018-05-18T09:31:24.364Z,14.30
2018-05-18T09:33:53.770Z,14.40
2018-05-18T09:36:34.149Z,14.40
2018-05-18T09:39:01.756Z,14.60
2018-05-18T09:41:29.931Z,14.70
2018-05-18T09:44:01.085Z,14.60
2018-05-18T09:46:38.683Z,14.00
2018-05-18T09:49:13.891Z,14.30
2018-05-18T09:51:45.077Z,14.60
2018-05-18T09:54:12.948Z,15.20
2018-05-18T09:56:41.500Z,15.80
2018-05-18T09:59:09.588Z,15.80
2018-05-18T10:01:40.170Z,16.10
2018-05-18T10:04:14.791Z,15.80
2018-05-18T10:06:50.287Z,15.80
2018-05-18T10:09:26.116Z,15.90
2018-05-18T10:12:03.807Z,16.10
2018-05-18T10:14:38.542Z,16.50
2018-05-18T10:17:16.042Z,16.90
2018-05-18T10:19:51.164Z,17.30
2018-05-18T10:22:19.305Z,17.70
2018-05-18T10:27:15.284Z,17.30
2018-05-18T10:29:43.175Z,17.40
2018-05-18T10:32:12.550Z,17.40
2018-05-18T10:34:48.041Z,18.10
2018-05-18T10:37:21.913Z,18.10
2018-05-18T10:42:18.827Z,18.40
2018-05-18T10:44:46.428Z,18.40
2018-05-18T10:47:14.838Z,18.50
2018-05-18T10:49:49.451Z,18.50
2018-05-18T10:52:25.008Z,18.80
2018-05-18T10:55:00.688Z,18.30
2018-05-18T10:57:36.519Z,18.20
2018-05-18T11:00:14.213Z,18.20
2018-05-18T11:02:50.042Z,17.80
2018-05-18T11:05:26.278Z,18.20
2018-05-18T11:08:02.421Z,18.50
2018-05-18T11:10:37.757Z,18.50
2018-05-18T11:13:12.602Z,19.00
2018-05-18T11:15:48.327Z,19.10
2018-05-18T11:18:26.309Z,19.50
2018-05-18T11:20:55.259Z,20.10
2018-05-18T11:23:32.975Z,20.40
2018-05-18T11:26:08.785Z,19.70
2018-05-18T11:28:46.030Z,19.70
2018-05-18T11:31:17.275Z,19.10
2018-05-18T11:33:57.789Z,18.60
2018-05-18T11:36:31.990Z,18.40
2018-05-18T11:39:09.978Z,19.00
2018-05-18T11:41:47.750Z,19.40
2018-05-18T11:44:22.659Z,20.10
2018-05-18T11:46:58.408Z,19.90
2018-05-18T11:49:33.265Z,20.00
2018-05-18T11:52:10.866Z,20.60
2018-05-18T11:54:39.336Z,20.60
2018-05-18T11:57:14.846Z,20.90
2018-05-18T11:59:52.670Z,21.10
2018-05-18T12:02:29.143Z,21.40
2018-05-18T12:05:05.180Z,21.30
2018-05-18T12:07:40.184Z,20.90
2018-05-18T12:10:17.873Z,20.80
2018-05-18T12:12:51.359Z,21.00
2018-05-18T12:15:24.775Z,20.80
2018-05-18T12:17:59.255Z,20.30
2018-05-18T12:22:54.350Z,19.70
2018-05-18T12:25:22.891Z,19.70
2018-05-18T12:27:50.581Z,20.30
2018-05-18T12:30:26.239Z,20.80
2018-05-18T12:33:01.278Z,21.20
2018-05-18T12:35:41.643Z,21.40
2018-05-18T12:38:11.242Z,21.40
2018-05-18T12:43:07.109Z,21.30
2018-05-18T12:45:35.460Z,21.30
2018-05-18T12:48:06.493Z,21.50
2018-05-18T12:50:41.966Z,20.40
2018-05-18T12:53:17.893Z,19.50
2018-05-18T12:55:52.556Z,19.90
2018-05-18T12:58:28.171Z,20.40
2018-05-18T13:01:06.091Z,20.80
2018-05-18T13:03:39.941Z,20.30
2018-05-18T13:06:16.080Z,20.50
2018-05-18T13:08:51.868Z,20.90
2018-05-18T13:11:26.697Z,21.00
2018-05-18T13:14:01.674Z,20.60
2018-05-18T13:16:37.632Z,20.10
2018-05-18T13:19:12.027Z,20.00
2018-05-18T13:21:47.273Z,20.50
2018-05-18T13:24:25.692Z,20.80
2018-05-18T13:27:00.639Z,20.40
2018-05-18T13:29:35.561Z,20.70
2018-05-18T13:32:14.266Z,20.70
2018-05-18T13:34:52.362Z,20.90
2018-05-18T13:37:28.348Z,21.10
2018-05-18T13:40:06.031Z,21.20
2018-05-18T13:42:43.953Z,21.40
2018-05-18T13:45:19.441Z,20.70
2018-05-18T13:47:49.690Z,19.30
2018-05-18T13:52:44.315Z,19.60
2018-05-18T13:55:12.571Z,20.10
2018-05-18T13:57:46.295Z,20.50
2018-05-18T14:00:22.341Z,20.80
2018-05-18T14:02:56.236Z,21.10
2018-05-18T14:05:33.814Z,21.40
2018-05-18T14:08:09.602Z,21.60
2018-05-18T14:10:43.025Z,21.60
2018-05-18T14:13:16.925Z,21.70
2018-05-18T14:15:50.897Z,21.60
2018-05-18T14:21:06.843Z,21.60
2018-05-18T14:23:42.763Z,21.60
2018-05-18T14:29:35.530Z,22.10
2018-05-18T14:32:14.572Z,22.30
2018-05-18T14:34:47.359Z,22.30
2018-05-18T14:37:24.025Z,22.40
2018-05-18T14:39:57.959Z,22.00
2018-05-18T14:48:29.848Z,21.00
2018-05-18T14:51:12.511Z,20.60
2018-05-18T14:56:50.580Z,20.70
2018-05-18T14:59:18.338Z,20.70
2018-05-18T15:01:46.052Z,20.90
2018-05-18T15:04:19.520Z,21.10
2018-05-18T15:06:55.388Z,21.10
2018-05-18T15:09:32.920Z,21.10
2018-05-18T15:12:04.213Z,20.30
2018-05-18T15:17:36.847Z,20.20
2018-05-18T15:20:10.965Z,20.10
2018-05-18T15:22:40.081Z,19.90
2018-05-18T15:25:07.695Z,19.90
2018-05-18T15:27:35.290Z,20.00
2018-05-18T15:30:03.692Z,20.30
2018-05-18T15:32:55.250Z,19.90
2018-05-18T15:35:22.879Z,19.90
2018-05-18T15:37:50.487Z,19.00
2018-05-18T15:40:18.098Z,18.40
2018-05-18T15:42:45.830Z,18.40
2018-05-18T15:45:13.379Z,18.30
2018-05-18T15:47:40.980Z,18.30
2018-05-18T15:50:09.405Z,18.40
2018-05-18T15:52:37.002Z,18.30
2018-05-18T15:55:04.626Z,18.60
2018-05-18T15:57:32.309Z,18.80
2018-05-18T15:59:59.940Z,18.80
2018-05-18T16:02:32.084Z,19.10
2018-05-18T16:05:00.481Z,19.00
2018-05-18T16:07:28.856Z,18.70
2018-05-18T16:09:57.254Z,18.30
2018-05-18T16:12:24.893Z,18.30
2018-05-18T16:14:52.527Z,17.80
2018-05-18T16:17:20.162Z,17.30
2018-05-18T16:19:48.554Z,17.20
2018-05-18T16:22:16.145Z,17.50
2018-05-18T16:24:43.754Z,17.40
2018-05-18T16:27:11.410Z,17.50
2018-05-18T16:29:39.807Z,18.10
2018-05-18T16:32:08.194Z,18.20
2018-05-18T16:34:35.859Z,18.20
2018-05-18T16:37:03.488Z,18.00
2018-05-18T16:39:31.108Z,18.10
2018-05-18T16:42:00.542Z,18.30
2018-05-18T16:44:28.187Z,18.30
2018-05-18T16:46:56.013Z,18.20
2018-05-18T16:49:23.663Z,18.20
2018-05-18T16:51:51.266Z,18.10
2018-05-18T16:54:22.359Z,17.40
2018-05-18T16:56:50.076Z,17.40
2018-05-18T16:59:18.467Z,17.50
2018-05-18T17:01:46.074Z,17.50
2018-05-18T17:04:15.375Z,17.50
2018-05-18T17:06:43.058Z,17.30
2018-05-18T17:09:10.654Z,17.00
2018-05-18T17:11:45.397Z,17.10
2018-05-18T17:14:13.767Z,17.30
2018-05-18T17:16:42.180Z,17.30
2018-05-18T17:19:29.485Z,17.20
2018-05-18T17:24:53.791Z,16.90
2018-05-18T17:27:21.443Z,16.60
2018-05-18T17:29:49.119Z,16.50
2018-05-18T17:32:16.741Z,16.40
2018-05-18T17:34:45.231Z,16.30
2018-05-18T17:37:12.892Z,16.00
2018-05-18T17:39:40.502Z,16.00
2018-05-18T17:42:08.173Z,16.00
2018-05-18T17:44:35.823Z,15.90
2018-05-18T17:47:03.451Z,16.00
2018-05-18T17:49:31.070Z,16.10
2018-05-18T17:51:58.751Z,16.10
2018-05-18T17:54:26.446Z,16.00
2018-05-18T17:56:54.047Z,16.00
2018-05-18T17:59:21.730Z,16.00
2018-05-18T18:01:49.348Z,15.90
2018-05-18T18:04:17.772Z,15.70
2018-05-18T18:06:45.441Z,15.70
2018-05-18T18:09:13.288Z,15.70
2018-05-18T18:11:41.171Z,15.70
2018-05-18T18:14:09.797Z,15.90
2018-05-18T18:16:40.567Z,15.80
2018-05-18T18:19:08.306Z,15.80
2018-05-18T18:21:36.908Z,15.70
2018-05-18T18:24:06.929Z,15.50
2018-05-18T18:26:35.360Z,15.50
2018-05-18T18:29:02.965Z,15.50
2018-05-18T18:31:32.737Z,15.50
2018-05-18T18:34:00.399Z,15.60
2018-05-18T18:36:28.040Z,15.50
2018-05-18T18:38:56.424Z,15.20
2018-05-18T18:41:24.046Z,15.20
2018-05-18T18:43:51.707Z,15.20
2018-05-18T18:46:19.304Z,15.20
2018-05-18T18:48:48.558Z,15.10
2018-05-18T18:51:16.186Z,15.10
2018-05-18T18:53:45.649Z,15.10
2018-05-18T18:56:13.361Z,15.10
2018-05-18T18:58:42.945Z,14.90
2018-05-18T19:01:10.553Z,14.90
2018-05-18T19:03:38.211Z,14.90
2018-05-18T19:06:05.805Z,14.90
2018-05-18T19:08:33.474Z,14.90
2018-05-18T19:11:02.832Z,14.90
2018-05-18T19:13:31.212Z,14.70
2018-05-18T19:16:00.520Z,14.70
2018-05-18T19:18:28.129Z,14.70
2018-05-18T19:20:56.941Z,14.60
2018-05-18T19:23:24.576Z,14.60
2018-05-18T19:25:58.803Z,14.60
2018-05-18T19:28:27.207Z,14.50
2018-05-18T19:30:54.810Z,14.40
2018-05-18T19:33:23.781Z,14.40
2018-05-18T19:35:59.333Z,14.30
2018-05-18T19:38:34.884Z,14.20
2018-05-18T19:41:02.983Z,14.20
2018-05-18T19:43:32.300Z,14.20
2018-05-18T19:46:03.077Z,14.10
2018-05-18T19:48:30.843Z,14.00
2018-05-18T19:50:58.512Z,13.80
2018-05-18T19:53:26.891Z,13.70
2018-05-18T19:55:56.425Z,13.70
2018-05-18T19:58:24.874Z,13.60
2018-05-18T20:00:53.276Z,13.60
2018-05-18T20:03:20.952Z,13.60
2018-05-18T20:05:49.534Z,13.50
2018-05-18T20:08:17.138Z,13.40
2018-05-18T20:10:44.782Z,13.40
2018-05-18T20:13:12.402Z,13.40
2018-05-18T20:15:40.039Z,13.40
2018-05-18T20:18:07.691Z,13.30
2018-05-18T20:20:35.288Z,13.20
2018-05-18T20:23:02.898Z,13.10
2018-05-18T20:25:30.529Z,13.00
2018-05-18T20:27:58.907Z,12.90
2018-05-18T20:30:26.551Z,12.90
2018-05-18T20:32:54.179Z,12.90
2018-05-18T20:35:21.819Z,12.90
2018-05-18T20:37:49.434Z,12.80
2018-05-18T20:40:17.091Z,12.70
2018-05-18T20:42:44.703Z,12.70
2018-05-18T20:45:12.307Z,12.70
2018-05-18T20:47:39.983Z,12.70
2018-05-18T20:50:07.596Z,12.60
2018-05-18T20:52:35.213Z,12.50
2018-05-18T20:55:02.859Z,12.50
2018-05-18T20:57:31.220Z,12.40
2018-05-18T20:59:58.846Z,12.40
2018-05-18T21:02:26.475Z,12.40
2018-05-18T21:04:54.833Z,12.30
2018-05-18T21:07:22.435Z,12.30
2018-05-18T21:09:50.062Z,12.30
2018-05-18T21:12:17.665Z,12.30
2018-05-18T21:14:45.292Z,12.20
2018-05-18T21:17:12.947Z,12.20
2018-05-18T21:19:40.578Z,12.10
2018-05-18T21:22:08.359Z,12.10
2018-05-18T21:24:35.993Z,12.00
2018-05-18T21:27:04.380Z,11.90
2018-05-18T21:29:32.750Z,11.90
2018-05-18T21:32:01.164Z,11.80
2018-05-18T21:34:28.768Z,11.80
2018-05-18T21:36:56.398Z,11.80
2018-05-18T21:39:24.065Z,11.70
2018-05-18T21:41:51.701Z,11.70
2018-05-18T21:44:20.083Z,11.70
2018-05-18T21:46:48.532Z,11.70
2018-05-18T21:49:17.092Z,11.60
2018-05-18T21:51:44.739Z,11.60
2018-05-18T21:54:13.215Z,11.60
2018-05-18T21:56:41.606Z,11.50
2018-05-18T21:59:09.996Z,11.40
2018-05-18T22:01:38.553Z,11.40
2018-05-18T22:04:06.944Z,11.30
2018-05-18T22:06:35.367Z,11.30
2018-05-18T22:09:02.999Z,11.30
2018-05-18T22:11:31.395Z,11.20
2018-05-18T22:13:59.050Z,11.20
2018-05-18T22:16:27.484Z,11.10
2018-05-18T22:18:55.093Z,11.10
2018-05-18T22:21:23.515Z,11.10
2018-05-18T22:23:51.236Z,11.00
2018-05-18T22:26:18.843Z,11.00
2018-05-18T22:28:46.447Z,11.00
2018-05-18T22:31:14.118Z,10.90
2018-05-18T22:33:41.741Z,10.80
2018-05-18T22:36:09.363Z,10.80
2018-05-18T22:38:37.675Z,10.80
2018-05-18T22:41:06.069Z,10.80
2018-05-18T22:43:33.698Z,10.80
2018-05-18T22:46:01.361Z,10.80
2018-05-18T22:48:29.747Z,10.70
2018-05-18T22:50:58.245Z,10.70
2018-05-18T22:53:26.659Z,10.50
2018-05-18T22:55:54.252Z,10.50
2018-05-18T22:58:21.846Z,10.50
2018-05-18T23:00:49.510Z,10.50
2018-05-18T23:03:17.119Z,10.50
2018-05-18T23:05:44.732Z,10.50
2018-05-18T23:08:12.400Z,10.40
2018-05-18T23:10:40.013Z,10.40
2018-05-18T23:13:07.668Z,10.40
2018-05-18T23:15:35.332Z,10.30
2018-05-18T23:18:02.991Z,10.30
2018-05-18T23:20:31.411Z,10.30
2018-05-18T23:22:59.029Z,10.20
2018-05-18T23:25:26.639Z,10.20
2018-05-18T23:27:54.271Z,10.10
2018-05-18T23:30:22.658Z,10.00
2018-05-18T23:32:51.077Z,10.00
2018-05-18T23:35:19.560Z,9.90
2018-05-18T23:37:47.177Z,10.00
2018-05-18T23:40:14.764Z,10.00
2018-05-18T23:42:43.185Z,9.90
2018-05-18T23:45:10.776Z,9.90
2018-05-18T23:47:38.404Z,9.90
2018-05-18T23:50:06.038Z,9.80
2018-05-18T23:52:34.427Z,9.80
2018-05-18T23:55:02.779Z,9.70
2018-05-18T23:57:31.235Z,9.70
2018-05-18T23:59:58.830Z,9.60
